Meteo Giornale » Osservazioni meteo Italia » Rimini

ore: 02:50 - Osservazioni Meteo Rimini
Lat. 44° 2' N Lon. 12° 37' E Alt. 12 metri s.l.m.

molto_nuvoloso Europe/Rome

25 °C

Molto Nuvoloso

Temp. 24 Ore

20 °C

30 °C

Ovest/Sud-Ovest

9.3 Km/h

Dew point 11 °C

Umidità 41 %

Visibilità  10 Km

Il sole sorge alle ore 06:00

Il sole tramonta alle ore 20:30

Data e Ora Cielo e Fenomeni T °C DP °C Um. % Pres. hPa Vis. km Vento km/h
Oggi h: 02:50 molto_nuvoloso Molto Nuvoloso 25 11 41 1007 10 O/SO 9.3
Oggi h: 02:20 molto_nuvoloso Molto Nuvoloso 26 12 41 1007 10 N 9.3
Oggi h: 01:50 molto_nuvoloso Molto Nuvoloso 24 16 60 1006 10 SO 7.4
Oggi h: 01:20 poco_nuvoloso Poco Nuvoloso 23 18 73 1007 10 SO 9.3
Oggi h: 00:50 nuvoloso Nuvoloso 24 19 73 1007 10 N 5.5
Oggi h: 00:20 molto_nuvoloso Molto Nuvoloso 23 20 83 1007 10 N 3.7
Ieri h: 23:50 nuvoloso Nuvoloso 23 20 83 1008 10 N 1.8
Ieri h: 23:20 molto_nuvoloso Molto Nuvoloso 25 20 73 1008 10 N 3.7
Ieri h: 22:50 molto_nuvoloso Molto Nuvoloso 24 21 83 1008 10 N 3.7
Ieri h: 22:20 nuvoloso Nuvoloso 24 20 78 1008 10 O 7.4
Ieri h: 21:50 nuvoloso Nuvoloso 25 21 78 1008 10 N 5.5
Ieri h: 21:20 nuvoloso Nuvoloso 25 21 78 1008 10 N 5.5
Ieri h: 20:50 poco_nuvoloso Poco Nuvoloso 26 21 73 1008 10 N 3.7
Ieri h: 20:20 molto_nuvoloso Molto Nuvoloso 26 22 78 1008 10 E/SE 11.1
Ieri h: 19:50 sereno Sereno 26 22 78 1009 10 E/SE 16.7
Ieri h: 19:20 sereno Sereno 26 22 78 1009 10 E 18.5
Ieri h: 18:50 sereno Sereno 27 21 69 1008 10 E/SE 18.5
Ieri h: 18:20 sereno Sereno 27 21 69 1009 10 E/SE 20.3
Ieri h: 17:50 sereno Sereno 28 20 61 1009 10 E 18.5
Ieri h: 17:20 sereno Sereno 27 20 65 1010 10 E/SE 20.3
Ieri h: 16:50 sereno Sereno 27 20 65 1010 10 E/SE 22.2
Ieri h: 16:20 sereno Sereno 27 21 69 1010 10 E/SE 22.2
Ieri h: 15:50 sereno Sereno 27 22 74 1010 10 E 20.3
Ieri h: 15:20 sereno Sereno 27 22 74 1011 10 E/SE 24
Ieri h: 14:50 sereno Sereno 28 21 65 1011 10 E 20.3
Ieri h: 14:20 sereno Sereno 28 18 54 1011 10 E 20.3
Ieri h: 13:50 sereno Sereno 29 20 58 1011 10 E 18.5
Ieri h: 13:20 sereno Sereno 29 16 45 1011 10 E/NE 18.5
Ieri h: 11:50 sereno Sereno 30 11 30 1012 10 S 13
Ieri h: 11:20 sereno Sereno 30 11 30 1012 10 S/SE 20.3
Ieri h: 10:50 sereno Sereno 30 11 30 1012 10 S/SE 14.8
Ieri h: 10:20 sereno Sereno 29 11 32 1013 10 S 9.3
Ieri h: 09:50 sereno Sereno 27 13 42 1012 10 SE 7.4
Ieri h: 09:20 sereno Sereno 27 13 42 1013 10 E/SE 7.4
Ieri h: 08:50 sereno Sereno 26 12 41 1013 10 SE 7.4
Ieri h: 08:20 sereno Sereno 24 13 50 1013 10 N 5.5
Ieri h: 07:50 sereno Sereno 22 13 56 1013 10 N 3.7
Ieri h: 07:20 sereno Sereno 20 13 64 1012 10 N 5.5
Ieri h: 06:50 sereno Sereno 20 12 59 1013 10 N 3.7
Ieri h: 06:20 sereno Sereno 22 11 49 1013 10 N 3.7
Ieri h: 05:50 poco_nuvoloso Poco Nuvoloso 21 11 52 1012 10 N 5.5
Ieri h: 05:20 poco_nuvoloso Poco Nuvoloso 22 11 49 1012 10 S/SE 9.3
Ieri h: 04:50 nuvoloso Nuvoloso 22 10 46 1013 10 S 7.4
Ieri h: 04:20 molto_nuvoloso Molto Nuvoloso 21 9 46 1013 10 N 1.8
Ieri h: 03:50 molto_nuvoloso Molto Nuvoloso 23 9 40 1013 10 S 7.4